createdAt,value
2023-07-16T00:01:52.505Z,43.90
2023-07-16T00:06:55.746Z,47.30
2023-07-16T00:12:00.374Z,49.60
2023-07-16T00:17:03.672Z,51.40
2023-07-16T00:22:07.038Z,52.60
2023-07-16T00:27:11.595Z,51.20
2023-07-16T00:32:14.934Z,50.20
2023-07-16T00:37:18.220Z,51.80
2023-07-16T00:42:22.895Z,52.50
2023-07-16T00:47:26.231Z,51.60
2023-07-16T00:52:30.578Z,50.50
2023-07-16T00:57:35.403Z,49.50
2023-07-16T01:02:38.743Z,48.70
2023-07-16T01:07:46.963Z,48.80
2023-07-16T01:12:52.135Z,50.30
2023-07-16T01:17:55.510Z,56.60
2023-07-16T01:23:22.206Z,53.90
2023-07-16T01:28:56.360Z,51.50
2023-07-16T01:34:01.562Z,48.10
2023-07-16T01:39:04.959Z,48.40
2023-07-16T01:44:08.317Z,49.80
2023-07-16T01:49:12.850Z,49.00
2023-07-16T01:54:16.142Z,49.60
2023-07-16T01:59:19.341Z,48.20
2023-07-16T02:04:24.019Z,49.00
2023-07-16T02:09:27.387Z,48.70
2023-07-16T02:14:30.610Z,48.80
2023-07-16T02:19:35.582Z,48.70
2023-07-16T02:24:38.882Z,48.60
2023-07-16T02:29:42.107Z,48.80
2023-07-16T02:34:46.715Z,48.60
2023-07-16T02:39:49.979Z,47.30
2023-07-16T02:44:53.222Z,48.70
2023-07-16T02:49:57.888Z,49.90
2023-07-16T02:55:01.189Z,49.90
2023-07-16T03:00:05.108Z,50.40
2023-07-16T03:05:10.183Z,51.00
2023-07-16T03:10:13.377Z,50.90
2023-07-16T03:15:16.849Z,51.70
2023-07-16T03:20:21.936Z,51.10
2023-07-16T03:25:25.130Z,50.90
2023-07-16T03:30:28.392Z,50.50
2023-07-16T03:35:33.132Z,50.00
2023-07-16T03:40:36.502Z,49.00
2023-07-16T03:45:39.753Z,47.90
2023-07-16T03:50:44.321Z,48.40
2023-07-16T03:55:47.492Z,48.90
2023-07-16T04:00:50.762Z,48.10
2023-07-16T04:06:03.562Z,47.70
2023-07-16T04:11:07.713Z,47.60
2023-07-16T04:16:11.033Z,48.50
2023-07-16T04:21:15.667Z,49.20
2023-07-16T04:26:19.114Z,48.20
2023-07-16T04:31:22.658Z,47.70
2023-07-16T04:36:27.426Z,46.90
2023-07-16T04:41:30.618Z,47.10
2023-07-16T04:46:33.995Z,47.20
2023-07-16T04:51:38.583Z,46.30
2023-07-16T04:56:41.818Z,46.90
2023-07-16T05:01:45.121Z,46.00
2023-07-16T05:06:49.616Z,46.10
2023-07-16T05:11:52.870Z,45.90
2023-07-16T05:16:56.427Z,46.30
2023-07-16T05:22:01.148Z,46.00
2023-07-16T05:27:04.768Z,41.10
2023-07-16T05:32:08.889Z,42.60
2023-07-16T05:37:14.005Z,37.80
2023-07-16T05:42:17.213Z,37.10
2023-07-16T05:47:21.838Z,39.60
2023-07-16T05:52:26.513Z,39.10
2023-07-16T05:57:29.730Z,39.40
2023-07-16T06:02:32.953Z,40.10
2023-07-16T06:07:37.518Z,39.20
2023-07-16T06:12:40.815Z,41.00
2023-07-16T06:17:44.094Z,37.00
2023-07-16T06:22:48.877Z,30.00
2023-07-16T06:27:52.156Z,26.90
2023-07-16T06:32:55.462Z,26.90
2023-07-16T06:38:00.057Z,29.30
2023-07-16T06:43:03.323Z,33.00
2023-07-16T06:48:07.513Z,35.30
2023-07-16T06:53:12.170Z,36.00
2023-07-16T06:58:16.396Z,37.40
2023-07-16T07:03:19.694Z,37.80
2023-07-16T07:08:24.506Z,38.80
2023-07-16T07:13:27.867Z,38.60
2023-07-16T07:18:31.205Z,37.30
2023-07-16T07:23:35.884Z,35.80
2023-07-16T07:28:39.080Z,35.20
2023-07-16T07:33:42.450Z,36.70
2023-07-16T07:38:47.082Z,34.60
2023-07-16T07:43:50.361Z,33.90
2023-07-16T07:48:53.711Z,34.00
2023-07-16T07:53:58.430Z,34.30
2023-07-16T07:59:01.910Z,35.70
2023-07-16T08:04:05.310Z,34.60
2023-07-16T08:09:10.183Z,33.70
2023-07-16T08:14:13.570Z,34.10
2023-07-16T08:19:16.838Z,33.60
2023-07-16T08:24:21.446Z,34.30
2023-07-16T08:29:24.618Z,34.30
2023-07-16T08:34:27.859Z,34.20
2023-07-16T08:39:33.674Z,35.10
2023-07-16T08:44:37.568Z,33.90
2023-07-16T08:49:41.971Z,34.60
2023-07-16T08:54:46.536Z,34.40
2023-07-16T08:59:50.358Z,33.10
2023-07-16T09:04:53.610Z,32.40
2023-07-16T09:10:02.236Z,30.60
2023-07-16T09:15:06.284Z,31.30
2023-07-16T09:20:11.128Z,30.70
2023-07-16T09:25:16.041Z,29.60
2023-07-16T09:30:19.505Z,29.70
2023-07-16T09:35:22.670Z,30.00
2023-07-16T09:40:27.545Z,30.30
2023-07-16T09:45:30.926Z,28.60
2023-07-16T09:50:36.141Z,28.70
2023-07-16T09:55:41.969Z,29.10
2023-07-16T10:00:45.390Z,29.20
2023-07-16T10:05:49.231Z,29.10
2023-07-16T10:10:58.300Z,29.00
2023-07-16T10:16:02.064Z,28.70
2023-07-16T10:21:08.188Z,28.50
2023-07-16T10:26:18.303Z,28.90
2023-07-16T10:31:24.570Z,28.00
2023-07-16T10:36:28.070Z,27.90
2023-07-16T10:41:33.083Z,28.40
2023-07-16T10:46:36.547Z,28.40
2023-07-16T10:51:39.887Z,29.10
2023-07-16T10:56:44.499Z,27.20
2023-07-16T11:01:48.318Z,26.90
2023-07-16T11:06:52.468Z,26.70
2023-07-16T11:11:57.285Z,27.00
2023-07-16T11:17:06.531Z,26.80
2023-07-16T11:22:10.636Z,27.00
2023-07-16T11:27:19.248Z,26.50
2023-07-16T11:32:32.932Z,26.00
2023-07-16T11:37:38.014Z,26.60
2023-07-16T11:42:43.275Z,26.00
2023-07-16T11:47:46.766Z,25.70
2023-07-16T11:52:54.609Z,26.00
2023-07-16T11:58:00.825Z,25.30
2023-07-16T12:03:04.418Z,26.00
2023-07-16T12:08:07.673Z,25.60
2023-07-16T12:13:12.436Z,26.20
2023-07-16T12:18:15.716Z,25.80
2023-07-16T12:23:19.050Z,25.80
2023-07-16T12:28:23.632Z,25.70
2023-07-16T12:33:26.979Z,25.90
2023-07-16T12:38:30.223Z,25.60
2023-07-16T12:43:36.908Z,25.70
2023-07-16T12:48:42.653Z,25.50
2023-07-16T12:53:46.246Z,25.40
2023-07-16T12:58:51.213Z,25.00
2023-07-16T13:03:54.496Z,24.40
2023-07-16T13:08:57.934Z,24.10
2023-07-16T13:14:02.553Z,23.60
2023-07-16T13:19:06.169Z,24.20
2023-07-16T13:24:09.415Z,24.30
2023-07-16T13:29:14.052Z,24.20
2023-07-16T13:34:17.291Z,23.80
2023-07-16T13:39:20.678Z,23.70
2023-07-16T13:44:25.474Z,23.60
2023-07-16T13:49:28.783Z,24.30
2023-07-16T13:54:32.021Z,24.30
2023-07-16T13:59:36.672Z,24.20
2023-07-16T14:04:40.016Z,24.40
2023-07-16T14:09:43.293Z,25.00
2023-07-16T14:14:47.910Z,24.50
2023-07-16T14:19:51.533Z,24.40
2023-07-16T14:24:54.767Z,24.90
2023-07-16T14:30:05.927Z,24.10
2023-07-16T14:35:18.565Z,24.20
2023-07-16T14:40:29.229Z,25.00
2023-07-16T14:45:34.249Z,24.80
2023-07-16T14:50:37.547Z,25.00
2023-07-16T14:55:41.163Z,25.00
2023-07-16T15:00:46.096Z,24.70
2023-07-16T15:05:49.356Z,25.10
2023-07-16T15:10:53.422Z,25.00
2023-07-16T15:15:59.489Z,24.80
2023-07-16T15:21:04.215Z,25.10
2023-07-16T15:26:12.240Z,25.20
2023-07-16T15:31:16.943Z,26.20
2023-07-16T15:36:20.638Z,26.40
2023-07-16T15:41:26.471Z,25.50
2023-07-16T15:46:31.186Z,25.40
2023-07-16T15:51:37.280Z,25.40
2023-07-16T15:56:40.485Z,25.80
2023-07-16T16:01:45.328Z,25.80
2023-07-16T16:06:48.601Z,26.20
2023-07-16T16:11:52.035Z,26.10
2023-07-16T16:17:06.812Z,25.80
2023-07-16T16:22:11.683Z,26.10
2023-07-16T16:27:17.273Z,26.30
2023-07-16T16:32:21.917Z,26.00
2023-07-16T16:37:25.404Z,26.40
2023-07-16T16:42:28.582Z,26.20
2023-07-16T16:47:33.330Z,26.10
2023-07-16T16:52:36.795Z,26.20
2023-07-16T16:57:40.043Z,26.30
2023-07-16T17:02:44.648Z,27.10
2023-07-16T17:07:47.938Z,27.00
2023-07-16T17:12:51.206Z,27.10
2023-07-16T17:17:58.848Z,27.50
2023-07-16T17:23:03.539Z,27.90
2023-07-16T17:28:06.960Z,28.40
2023-07-16T17:33:11.898Z,28.80
2023-07-16T17:38:15.113Z,28.80
2023-07-16T17:43:18.329Z,28.70
2023-07-16T17:48:23.312Z,29.30
2023-07-16T17:53:26.598Z,29.30
2023-07-16T17:58:30.757Z,29.30
2023-07-16T18:03:35.503Z,29.50
2023-07-16T18:08:39.196Z,29.30
2023-07-16T18:13:42.851Z,29.50
2023-07-16T18:18:47.511Z,29.60
2023-07-16T18:23:51.374Z,29.90
2023-07-16T18:28:54.633Z,30.60
2023-07-16T18:33:59.374Z,31.30
2023-07-16T18:39:03.893Z,31.70
2023-07-16T18:44:09.631Z,32.30
2023-07-16T18:49:14.412Z,32.40
2023-07-16T18:54:18.279Z,32.40
2023-07-16T18:59:21.552Z,32.50
2023-07-16T19:04:26.277Z,32.80
2023-07-16T19:09:29.556Z,33.00
2023-07-16T19:14:32.863Z,33.30
2023-07-16T19:19:37.470Z,33.80
2023-07-16T19:24:40.953Z,34.40
2023-07-16T19:29:44.339Z,34.70
2023-07-16T19:34:49.300Z,35.10
2023-07-16T19:39:52.559Z,35.80
2023-07-16T19:44:56.925Z,36.70
2023-07-16T19:50:06.241Z,37.00
2023-07-16T19:55:09.738Z,37.20
2023-07-16T20:00:14.154Z,36.30
2023-07-16T20:05:19.319Z,36.90
2023-07-16T20:10:22.843Z,36.90
2023-07-16T20:15:26.788Z,37.30
2023-07-16T20:20:31.428Z,37.20
2023-07-16T20:25:34.617Z,36.70
2023-07-16T20:30:38.183Z,37.50
2023-07-16T20:35:42.773Z,38.60
2023-07-16T20:40:47.900Z,38.80
2023-07-16T20:45:51.234Z,39.90
2023-07-16T20:50:55.805Z,40.60
2023-07-16T20:56:00.050Z,41.90
2023-07-16T21:01:04.772Z,41.80
2023-07-16T21:06:09.475Z,42.20
2023-07-16T21:11:12.802Z,42.40
2023-07-16T21:16:16.110Z,42.00
2023-07-16T21:21:21.426Z,41.90
2023-07-16T21:26:24.727Z,41.40
2023-07-16T21:31:28.051Z,40.40
2023-07-16T21:36:32.680Z,41.00
2023-07-16T21:41:36.077Z,41.70
2023-07-16T21:46:39.323Z,45.50
2023-07-16T21:51:44.182Z,44.00
2023-07-16T21:56:47.506Z,43.20
2023-07-16T22:01:50.775Z,42.10
2023-07-16T22:06:55.475Z,41.20
2023-07-16T22:11:58.740Z,41.30
2023-07-16T22:17:01.930Z,40.70
2023-07-16T22:22:07.202Z,40.90
2023-07-16T22:27:10.595Z,41.40
2023-07-16T22:32:13.826Z,41.90
2023-07-16T22:37:18.499Z,42.90
2023-07-16T22:42:21.662Z,43.50
2023-07-16T22:47:24.907Z,46.80
2023-07-16T22:52:29.498Z,45.60
2023-07-16T22:57:32.783Z,45.60
2023-07-16T23:02:36.133Z,45.00
2023-07-16T23:07:42.510Z,46.60
2023-07-16T23:12:46.033Z,47.00
2023-07-16T23:17:49.287Z,46.00
2023-07-16T23:22:54.089Z,46.10
2023-07-16T23:27:57.355Z,44.80
2023-07-16T23:33:00.684Z,44.10
2023-07-16T23:38:05.574Z,44.20
2023-07-16T23:43:09.055Z,43.50
2023-07-16T23:48:12.322Z,44.00
2023-07-16T23:53:18.593Z,44.40
2023-07-16T23:58:22.238Z,44.70
